Gentry, AR (72734)

5:52 PM CDT on March 29, 2017 (GMT -0500)
Gentry AR Weather | | Change Station
Active Advisory: Tornado Watch

Elev 1204 ft 36.25 °N, 94.49 °W | Updated 3 minutes ago

Partly Cloudy
Partly Cloudy
73.3 °F
Feels Like 76 °F
N
11.0
Wind Variable Wind from SSW
Gusts 22.0 mph

Today
High -- | Low -- °F
--% Chance of Precip.
Yesterday
High -- | Low -- °F
Precip. -- in
Pressure 29.66 in
Visibility 10.0 miles
Clouds Few 4200 ft
Few 6000 ft
Heat Index 76 °F
Dew Point 60 °F
Humidity 63%
Rainfall 0.18 in
Snow Depth Not available.
7:07 AM 7:37 PM
Waxing Crescent, 5% visible
METAR KSLG 292235Z AUTO 20017G29KT 10SM FEW042 FEW060 23/12 A2966 RMK AO1
Pressure 29.66 in
Visibility 10.0 miles
Clouds Few 4200 ft
Few 6000 ft
Heat Index 76 °F
Dew Point 60 °F
Humidity 63%
Rainfall 0.18 in
Snow Depth Not available.
7:07 AM 7:37 PM
Waxing Crescent, 5% visible
METAR KSLG 292235Z AUTO 20017G29KT 10SM FEW042 FEW060 23/12 A2966 RMK AO1

Get Your Daily Forecast Email!

Thanks for signing up!

Be on the lookout for a verification email in your inbox.

You'll start receiving severe weather alerts in your inbox..

×

10-Day Weather Forecast

Almanac

Astronomy

Mar. 29, 2017 Rise Set
Actual Time
Civil Twilight
Nautical Twilight
Astronomical Twilight
Moon
Length of Visible Light
Length of Day
Tomorrow will be .
, % of the Moon is Illuminated

Today's Extremes

State Highs State Lows

Community

WunderPhotos

Upload Photos

1,962,540 photos uploaded!

WunderBlog® & News

Nearby

Air Quality

  Air Quality AQ Index Pollutant
Not available.

Snow Depth

Station Depth Elevation

Earthquake Activity

City Distance Mag. Time & Date
Minimum magnitude displayed is 2.5.

Earthquake Activity

City Distance Mag. Time & Date
Minimum magnitude displayed is 2.5.

Coastal Water Temperatures

Place Temperature

Stations

Nearby Weather Stations

Station Location Temp. Windchill Dew Point Humidity Wind Precip. Elev Updated Type
                   

Watches & Warnings

Tornado Watch
Issued: 5:43 PM CDT Mar. 29, 2017 – National Weather Service

Tornado Watch 100 remains in effect until 1200 am CDT for the
following locations


AR
. Arkansas counties included are

Baxter Benton Boone
Carroll Clark Conway
Crawford Franklin Fulton
Garland Hempstead Hot Spring
Howard Izard Johnson
Lafayette Little River Logan
Madison Marion Miller
Montgomery Nevada Newton
Perry Pike Polk
Pope Saline Scott
Searcy Sebastian Sevier
stone Van Buren Washington
Yell